createdAt,value
2023-03-22T00:02:04.714Z,19.83
2023-03-22T00:07:07.565Z,31.80
2023-03-22T00:12:12.745Z,16.03
2023-03-22T00:17:16.012Z,22.15
2023-03-22T00:22:37.468Z,21.90
2023-03-22T00:27:40.194Z,17.20
2023-03-22T00:32:43.136Z,13.77
2023-03-22T00:37:45.853Z,27.17
2023-03-22T00:42:48.560Z,19.20
2023-03-22T00:47:51.450Z,28.73
2023-03-22T00:52:54.482Z,32.00
2023-03-22T00:57:57.572Z,25.97
2023-03-22T01:03:04.518Z,23.00
2023-03-22T01:08:08.836Z,25.70
2023-03-22T01:13:12.696Z,15.23
2023-03-22T01:18:15.627Z,20.63
2023-03-22T01:23:18.465Z,16.20
2023-03-22T01:28:21.186Z,19.50
2023-03-22T01:33:23.961Z,17.83
2023-03-22T01:43:34.174Z,15.63
2023-03-22T01:48:46.411Z,9.30
2023-03-22T01:53:58.178Z,14.23
2023-03-22T01:59:05.879Z,14.88
2023-03-22T02:04:34.696Z,14.57
2023-03-22T02:09:41.915Z,17.45
2023-03-22T02:15:07.221Z,21.15
2023-03-22T02:20:34.189Z,18.67
2023-03-22T02:25:41.675Z,16.88
2023-03-22T02:30:59.581Z,21.45
2023-03-22T02:36:25.061Z,25.77
2023-03-22T02:41:50.946Z,17.70
2023-03-22T02:47:26.955Z,20.48
2023-03-22T02:52:39.649Z,19.65
2023-03-22T02:57:53.061Z,20.70
2023-03-22T03:03:00.468Z,26.92
2023-03-22T03:08:03.739Z,21.70
2023-03-22T03:13:16.637Z,15.55
2023-03-22T03:18:23.749Z,20.88
2023-03-22T03:23:38.089Z,17.58
2023-03-22T03:28:59.276Z,19.15
2023-03-22T03:34:20.031Z,19.52
2023-03-22T03:39:25.128Z,17.70
2023-03-22T03:44:28.469Z,13.50
2023-03-22T03:49:31.532Z,14.87
2023-03-22T03:54:34.425Z,17.80
2023-03-22T03:59:39.398Z,18.40
2023-03-22T04:04:51.839Z,22.35
2023-03-22T04:09:55.984Z,21.92
2023-03-22T04:15:03.290Z,17.55
2023-03-22T04:20:11.417Z,15.75
2023-03-22T04:25:18.469Z,19.45
2023-03-22T04:30:36.573Z,16.08
2023-03-22T04:35:59.832Z,14.60
2023-03-22T04:41:10.787Z,10.98
2023-03-22T04:46:18.644Z,12.75
2023-03-22T04:51:28.425Z,16.08
2023-03-22T04:56:45.663Z,24.15
2023-03-22T05:01:51.816Z,12.55
2023-03-22T05:06:59.662Z,14.45
2023-03-22T05:12:11.497Z,13.23
2023-03-22T05:17:26.478Z,12.07
2023-03-22T05:22:34.882Z,11.98
2023-03-22T05:27:39.296Z,11.43
2023-03-22T05:33:04.769Z,13.30
2023-03-22T05:38:13.278Z,12.75
2023-03-22T05:43:21.269Z,13.80
2023-03-22T05:48:26.124Z,16.75
2023-03-22T05:53:29.882Z,11.70
2023-03-22T05:58:37.578Z,17.30
2023-03-22T06:03:41.076Z,9.98
2023-03-22T06:09:07.251Z,9.27
2023-03-22T06:14:19.448Z,15.75
2023-03-22T06:19:51.406Z,14.18
2023-03-22T06:24:55.705Z,11.85
2023-03-22T06:30:08.861Z,7.90
2023-03-22T06:35:25.277Z,8.75
2023-03-22T06:40:28.359Z,11.00
2023-03-22T06:45:33.760Z,8.95
2023-03-22T06:50:41.236Z,9.80
2023-03-22T06:55:48.530Z,9.40
2023-03-22T07:00:58.594Z,10.68
2023-03-22T07:06:08.501Z,9.20
2023-03-22T07:11:14.555Z,15.68
2023-03-22T07:16:20.161Z,10.10
2023-03-22T07:21:33.624Z,9.18
2023-03-22T07:26:41.531Z,15.40
2023-03-22T07:31:47.536Z,10.93
2023-03-22T07:37:04.366Z,12.18
2023-03-22T07:42:07.755Z,11.25
2023-03-22T07:47:45.852Z,13.65
2023-03-22T07:52:48.557Z,11.45
2023-03-22T07:57:51.649Z,8.18
2023-03-22T08:02:54.958Z,11.57
2023-03-22T08:08:14.645Z,11.93
2023-03-22T08:13:17.656Z,9.77
2023-03-22T08:18:20.587Z,11.82
2023-03-22T08:23:38.493Z,11.90
2023-03-22T08:29:00.086Z,13.23
2023-03-22T08:34:06.258Z,8.90
2023-03-22T08:39:09.939Z,9.95
2023-03-22T08:44:35.288Z,9.57
2023-03-22T08:49:39.650Z,10.00
2023-03-22T08:54:52.876Z,11.68
2023-03-22T09:00:17.796Z,7.93
2023-03-22T09:05:29.364Z,11.00
2023-03-22T09:10:32.969Z,6.63
2023-03-22T09:15:36.214Z,15.18
2023-03-22T09:20:52.912Z,9.00
2023-03-22T09:26:05.512Z,8.02
2023-03-22T09:31:10.192Z,10.93
2023-03-22T09:36:14.724Z,10.23
2023-03-22T09:41:25.939Z,7.10
2023-03-22T09:46:37.263Z,7.85
2023-03-22T09:51:43.199Z,7.55
2023-03-22T09:56:51.939Z,8.65
2023-03-22T10:01:58.141Z,5.97
2023-03-22T10:07:08.349Z,6.60
2023-03-22T10:12:37.206Z,8.23
2023-03-22T10:17:43.175Z,10.25
2023-03-22T10:22:46.679Z,6.68
2023-03-22T10:27:51.287Z,5.13
2023-03-22T10:33:05.229Z,6.65
2023-03-22T10:38:13.851Z,8.20
2023-03-22T10:43:23.455Z,7.38
2023-03-22T10:48:30.438Z,7.82
2023-03-22T10:53:41.731Z,6.57
2023-03-22T10:58:44.699Z,7.22
2023-03-22T11:03:52.760Z,6.10
2023-03-22T11:08:59.063Z,7.85
2023-03-22T11:14:37.222Z,7.90
2023-03-22T11:19:42.112Z,11.40
2023-03-22T11:24:47.411Z,12.73
2023-03-22T11:30:09.298Z,6.97
2023-03-22T11:35:19.062Z,9.80
2023-03-22T11:40:30.109Z,8.05
2023-03-22T11:45:36.628Z,9.15
2023-03-22T11:50:41.120Z,7.40
2023-03-22T11:55:45.369Z,7.70
2023-03-22T12:00:54.077Z,6.67
2023-03-22T12:06:06.088Z,6.63
2023-03-22T12:11:28.317Z,5.93
2023-03-22T12:16:41.839Z,9.50
2023-03-22T12:21:46.260Z,6.72
2023-03-22T12:26:53.343Z,8.23
2023-03-22T12:32:03.782Z,9.93
2023-03-22T12:37:12.437Z,8.32
2023-03-22T12:42:25.779Z,7.25
2023-03-22T12:47:35.708Z,8.30
2023-03-22T12:52:57.118Z,9.60
2023-03-22T12:58:00.791Z,9.18
2023-03-22T13:03:10.560Z,7.68
2023-03-22T13:08:14.201Z,8.10
2023-03-22T13:13:23.340Z,5.90
2023-03-22T13:18:53.030Z,12.98
2023-03-22T13:24:15.755Z,10.02
2023-03-22T13:29:24.795Z,9.00
2023-03-22T13:34:45.114Z,10.32
2023-03-22T13:39:54.876Z,8.60
2023-03-22T13:45:02.738Z,8.85
2023-03-22T13:50:19.260Z,7.32
2023-03-22T13:55:42.738Z,9.07
2023-03-22T14:00:50.282Z,9.13
2023-03-22T14:06:18.890Z,6.88
2023-03-22T14:11:26.589Z,5.75
2023-03-22T14:16:50.378Z,7.85
